Aérodrome :
LOGIN :

S'inscrire | Disclaimer

   EN    FR    IT 

 










Légende :    VFR   VFR Marginal   IFR   IFR Intensif   IFR Très Intensif
Visi : 
Plafond : 
>= 8 km
>= 3000ft
5 à 8 km
1000 à 3000 ft
1500m à 5 km
500 à 1000 ft
800 à 1500m
200 à 500 ft
< 800m
< 200 ft
Symboles :   Orages  Brouillard  Fortes neiges  Fortes précipitations  Vent > 20 kt
SIGMETs :   Divers  Orages  Givrage  Turbulence  Onde Orograph.  Cendres Volcan.






- Altitude de l'aérodrome : -6 ft
- Code IATA : ALY


HEAX - Alexandria Int.

DERNIER METAR :
  • 260000Z 14002KT 9999 SCT020 12/11 Q1019 NOSIG

METARs EXPIRÉS :
  • 252300Z 27005KT 9999 SCT020 14/11 Q1020 NOSIG
  • 252200Z 27006KT 9999 SCT020 14/11 Q1020 NOSIG

TAF TAF HEAX
Valide du 26 à 00h jusqu'au 27 à 06h UTC


252300Z 2600/2706 25005KT 9999 FEW020
TEMPO 2600/2606 VRB03KT 3000 BR NSC



MET'MAP, la Météo Aéronautique d'un coup d'oeil ! - Copyright ORBIFLY Décembre 2007 - Disclaimer

ORBIFLY MET'MAP TEAM :

Programmation & Développement : Alexandra Zaïnal
Sur une idée originale de : Baudouin d'Aumeries
Assistance à la programmation : Marc-Olivier Méhu
Soutien technique & logistique : Manuel Goepfert

Contact : metmap@orbifly.com




SOURCES & CREDITS :

   NOAA